createdAt,value
2018-08-20T00:00:39.734Z,8.60
2018-08-20T00:01:39.702Z,8.40
2018-08-20T00:03:35.646Z,8.80
2018-08-20T00:04:36.164Z,9.40
2018-08-20T00:06:30.636Z,9.30
2018-08-20T00:07:30.636Z,9.50
2018-08-20T00:09:26.106Z,8.70
2018-08-20T00:10:26.065Z,8.70
2018-08-20T00:12:22.042Z,8.50
2018-08-20T00:13:23.034Z,9.00
2018-08-20T00:15:18.498Z,8.90
2018-08-20T00:16:18.934Z,8.70
2018-08-20T00:18:12.415Z,8.20
2018-08-20T00:19:12.431Z,8.60
2018-08-20T00:21:08.407Z,8.50
2018-08-20T00:22:08.403Z,9.00
2018-08-20T00:24:05.846Z,8.00
2018-08-20T00:25:04.338Z,8.50
2018-08-20T00:27:00.804Z,8.60
2018-08-20T00:28:00.304Z,9.10
2018-08-20T00:29:56.288Z,9.10
2018-08-20T00:30:56.266Z,8.60
2018-08-20T00:32:52.210Z,8.60
2018-08-20T00:33:52.223Z,8.50
2018-08-20T00:35:49.183Z,9.20
2018-08-20T00:36:48.148Z,8.20
2018-08-20T00:38:44.598Z,8.50
2018-08-20T00:39:45.102Z,9.00
2018-08-20T00:41:40.065Z,8.20
2018-08-20T00:42:40.062Z,9.00
2018-08-20T00:44:37.026Z,9.00
2018-08-20T00:45:36.016Z,8.80
2018-08-20T00:47:31.957Z,8.80
2018-08-20T00:48:31.965Z,9.10
2018-08-20T00:50:27.913Z,9.50
2018-08-20T00:51:27.933Z,8.70
2018-08-20T00:53:23.908Z,9.20
2018-08-20T00:54:23.887Z,8.70
2018-08-20T00:56:19.846Z,9.20
2018-08-20T00:57:19.864Z,9.80
2018-08-20T00:59:15.817Z,9.20
2018-08-20T01:00:15.796Z,8.90
2018-08-20T01:02:11.768Z,8.70
2018-08-20T01:03:11.773Z,8.60
2018-08-20T01:05:06.241Z,9.00
2018-08-20T01:06:06.722Z,8.90
2018-08-20T01:08:02.653Z,8.50
2018-08-20T01:09:02.145Z,8.90
2018-08-20T01:10:58.623Z,8.30
2018-08-20T01:11:58.106Z,8.80
2018-08-20T01:13:55.090Z,8.80
2018-08-20T01:14:54.065Z,8.90
2018-08-20T01:16:51.036Z,8.10
2018-08-20T01:17:50.520Z,9.00
2018-08-20T01:19:45.994Z,9.20
2018-08-20T01:20:45.971Z,9.20
2018-08-20T01:22:40.420Z,9.20
2018-08-20T01:23:41.935Z,9.20
2018-08-20T01:25:36.393Z,9.00
2018-08-20T01:26:36.336Z,9.60
2018-08-20T01:28:33.304Z,8.40
2018-08-20T01:29:32.289Z,8.50
2018-08-20T01:31:27.256Z,8.50
2018-08-20T01:32:26.760Z,8.80
2018-08-20T01:34:22.722Z,9.20
2018-08-20T01:35:22.723Z,8.50
2018-08-20T01:37:19.179Z,8.20
2018-08-20T01:38:18.670Z,9.20
2018-08-20T01:40:15.154Z,10.00
2018-08-20T01:41:14.633Z,9.30
2018-08-20T01:43:11.601Z,8.70
2018-08-20T01:44:10.589Z,9.00
2018-08-20T01:46:06.571Z,9.30
2018-08-20T01:47:06.516Z,9.00
2018-08-20T01:48:59.985Z,8.90
2018-08-20T01:49:59.957Z,8.70
2018-08-20T01:51:56.931Z,9.50
2018-08-20T01:52:56.412Z,9.50
2018-08-20T01:54:51.856Z,9.20
2018-08-20T01:55:51.867Z,9.40
2018-08-20T01:57:48.341Z,9.40
2018-08-20T01:58:48.755Z,10.50
2018-08-20T02:00:45.284Z,10.00
2018-08-20T02:01:43.769Z,10.10
2018-08-20T02:03:40.235Z,10.10
2018-08-20T02:04:40.225Z,10.50
2018-08-20T02:06:35.707Z,10.30
2018-08-20T02:07:35.691Z,10.00
2018-08-20T02:09:31.685Z,9.60
2018-08-20T02:10:32.153Z,10.20
2018-08-20T02:12:27.636Z,9.50
2018-08-20T02:13:27.619Z,9.80
2018-08-20T02:15:24.091Z,9.70
2018-08-20T02:16:23.555Z,10.30
2018-08-20T02:18:19.994Z,9.90
2018-08-20T02:19:19.502Z,9.90
2018-08-20T02:21:17.455Z,10.90
2018-08-20T02:22:15.464Z,9.90
2018-08-20T02:24:10.922Z,10.30
2018-08-20T02:25:09.907Z,10.00
2018-08-20T02:27:08.365Z,10.20
2018-08-20T02:28:07.851Z,10.50
2018-08-20T02:30:03.811Z,10.10
2018-08-20T02:31:04.325Z,10.30
2018-08-20T02:32:59.813Z,10.60
2018-08-20T02:33:59.778Z,9.60
2018-08-20T02:35:56.248Z,10.70
2018-08-20T02:36:55.702Z,10.20
2018-08-20T02:38:52.165Z,10.00
2018-08-20T02:39:51.658Z,9.70
2018-08-20T02:41:47.641Z,10.50
2018-08-20T02:42:48.125Z,9.80
2018-08-20T02:44:43.604Z,9.70
2018-08-20T02:45:44.077Z,10.40
2018-08-20T02:47:40.047Z,10.00
2018-08-20T02:48:39.555Z,10.20
2018-08-20T02:50:35.473Z,10.10
2018-08-20T02:51:35.479Z,10.10
2018-08-20T02:53:31.937Z,10.10
2018-08-20T02:54:31.431Z,10.30
2018-08-20T02:56:25.878Z,9.90
2018-08-20T02:57:27.377Z,9.50
2018-08-20T02:59:22.858Z,10.70
2018-08-20T03:00:21.855Z,10.40
2018-08-20T03:02:17.789Z,10.20
2018-08-20T03:03:17.808Z,10.60
2018-08-20T03:05:13.800Z,9.70
2018-08-20T03:06:13.744Z,10.10
2018-08-20T03:08:10.194Z,10.10
2018-08-20T03:09:09.678Z,10.40
2018-08-20T03:11:06.154Z,10.60
2018-08-20T03:12:05.662Z,10.80
2018-08-20T03:14:01.601Z,10.30
2018-08-20T03:15:01.638Z,11.00
2018-08-20T03:16:59.582Z,10.30
2018-08-20T03:17:57.585Z,10.50
2018-08-20T03:19:53.559Z,10.60
2018-08-20T03:20:53.540Z,11.00
2018-08-20T03:22:47.994Z,10.40
2018-08-20T03:23:47.996Z,10.40
2018-08-20T03:25:43.914Z,10.40
2018-08-20T03:26:44.467Z,10.20
2018-08-20T03:28:40.882Z,11.00
2018-08-20T03:29:39.898Z,10.90
2018-08-20T03:31:36.350Z,11.20
2018-08-20T03:32:35.843Z,11.50
2018-08-20T03:34:31.853Z,11.50
2018-08-20T03:35:32.798Z,10.50
2018-08-20T03:37:28.269Z,11.00
2018-08-20T03:38:28.265Z,11.60
2018-08-20T03:40:23.704Z,10.90
2018-08-20T03:41:23.708Z,11.20
2018-08-20T03:43:20.169Z,11.60
2018-08-20T03:44:19.654Z,12.10
2018-08-20T03:46:16.623Z,11.10
2018-08-20T03:47:16.617Z,10.90
2018-08-20T03:49:12.581Z,11.60
2018-08-20T03:50:11.598Z,11.10
2018-08-20T03:52:07.603Z,10.70
2018-08-20T03:53:07.546Z,10.70
2018-08-20T03:55:03.517Z,10.50
2018-08-20T03:56:03.531Z,10.30
2018-08-20T03:58:01.481Z,9.50
2018-08-20T03:58:59.520Z,9.20
2018-08-20T04:00:55.480Z,9.10
2018-08-20T04:01:55.442Z,8.90
2018-08-20T04:03:51.422Z,8.80
2018-08-20T04:04:51.910Z,8.60
2018-08-20T04:06:47.337Z,7.30
2018-08-20T04:07:47.880Z,7.00
2018-08-20T04:09:43.303Z,8.40
2018-08-20T04:10:41.811Z,7.20
2018-08-20T04:12:36.240Z,7.30
2018-08-20T04:13:36.259Z,6.20
2018-08-20T04:15:32.201Z,6.40
2018-08-20T04:16:32.201Z,7.00
2018-08-20T04:18:28.160Z,6.50
2018-08-20T04:19:28.151Z,6.90
2018-08-20T04:21:24.128Z,5.90
2018-08-20T04:22:25.127Z,6.40
2018-08-20T04:24:18.586Z,6.20
2018-08-20T04:25:18.596Z,6.20
2018-08-20T04:27:15.090Z,6.10
2018-08-20T04:28:14.567Z,6.00
2018-08-20T04:30:10.521Z,6.30
2018-08-20T04:31:11.520Z,5.60
2018-08-20T04:33:05.479Z,6.20
2018-08-20T04:34:05.482Z,5.60
2018-08-20T04:36:00.894Z,6.00
2018-08-20T04:37:02.425Z,5.80
2018-08-20T04:38:56.842Z,6.60
2018-08-20T04:39:56.843Z,5.60
2018-08-20T04:41:51.312Z,5.70
2018-08-20T04:42:51.296Z,5.90
2018-08-20T04:44:45.296Z,5.90
2018-08-20T04:45:44.774Z,6.00
2018-08-20T04:47:41.215Z,5.70
2018-08-20T04:48:40.714Z,6.30
2018-08-20T04:50:36.696Z,5.40
2018-08-20T04:51:37.608Z,5.00
2018-08-20T04:53:33.153Z,5.50
2018-08-20T04:54:32.651Z,5.30
2018-08-20T04:56:29.612Z,5.40
2018-08-20T04:57:29.598Z,5.10
2018-08-20T04:59:25.095Z,5.30
2018-08-20T05:00:24.582Z,5.50
2018-08-20T05:02:20.553Z,5.70
2018-08-20T05:03:20.542Z,5.20
2018-08-20T05:05:16.495Z,5.10
2018-08-20T05:06:16.472Z,5.50
2018-08-20T05:08:12.934Z,5.50
2018-08-20T05:09:12.422Z,4.90
2018-08-20T05:11:08.884Z,5.20
2018-08-20T05:12:08.379Z,5.60
2018-08-20T05:14:03.338Z,5.30
2018-08-20T05:15:02.820Z,6.00
2018-08-20T05:16:59.786Z,5.00
2018-08-20T05:17:59.784Z,4.90
2018-08-20T05:19:55.264Z,5.10
2018-08-20T05:20:54.747Z,4.90
2018-08-20T05:22:50.733Z,5.50
2018-08-20T05:23:50.724Z,4.80
2018-08-20T05:25:48.189Z,5.70
2018-08-20T05:26:46.636Z,5.50
2018-08-20T05:28:42.596Z,5.20
2018-08-20T05:29:43.142Z,5.10
2018-08-20T05:31:38.567Z,5.50
2018-08-20T05:32:38.570Z,5.20
2018-08-20T05:34:35.536Z,4.80
2018-08-20T05:35:34.516Z,5.20
2018-08-20T05:37:28.493Z,5.30
2018-08-20T05:38:27.972Z,5.30
2018-08-20T05:40:23.424Z,5.00
2018-08-20T05:41:22.429Z,4.90
2018-08-20T05:43:18.890Z,5.00
2018-08-20T05:44:18.424Z,5.10
2018-08-20T05:46:14.851Z,5.20
2018-08-20T05:47:14.340Z,4.70
2018-08-20T05:49:10.308Z,4.80
2018-08-20T05:50:10.804Z,4.90
2018-08-20T05:52:06.270Z,5.00
2018-08-20T05:53:06.262Z,4.90
2018-08-20T05:55:02.204Z,5.00
2018-08-20T05:56:02.221Z,4.70
2018-08-20T05:57:58.191Z,4.90
2018-08-20T05:58:58.187Z,4.60
2018-08-20T06:00:54.638Z,5.40
2018-08-20T06:01:54.654Z,4.90
2018-08-20T06:03:51.086Z,5.30
2018-08-20T06:04:50.103Z,5.10
2018-08-20T06:06:44.546Z,5.30
2018-08-20T06:07:44.557Z,5.70
2018-08-20T06:09:40.020Z,6.30
2018-08-20T06:10:39.045Z,5.10
2018-08-20T06:12:35.503Z,5.40
2018-08-20T06:13:35.515Z,5.20
2018-08-20T06:15:30.963Z,10.80
2018-08-20T06:16:30.912Z,6.40
2018-08-20T06:18:26.875Z,5.40
2018-08-20T06:19:26.868Z,5.10
2018-08-20T06:21:22.803Z,6.20
2018-08-20T06:22:23.341Z,4.90
2018-08-20T06:24:18.275Z,5.20
2018-08-20T06:25:17.267Z,5.70
2018-08-20T06:27:13.232Z,5.70
2018-08-20T06:28:14.724Z,5.40
2018-08-20T06:30:09.180Z,5.50
2018-08-20T06:31:09.169Z,5.90
2018-08-20T06:33:05.154Z,5.10
2018-08-20T06:34:05.119Z,5.40
2018-08-20T06:36:01.589Z,5.60
2018-08-20T06:37:01.589Z,4.90
2018-08-20T06:38:56.011Z,5.70
2018-08-20T06:39:55.995Z,6.10
2018-08-20T06:41:51.962Z,6.60
2018-08-20T06:42:51.440Z,6.40
2018-08-20T06:44:47.412Z,5.00
2018-08-20T06:45:47.385Z,5.20
2018-08-20T06:47:43.361Z,5.20
2018-08-20T06:48:44.369Z,5.40
2018-08-20T06:50:40.321Z,5.90
2018-08-20T06:51:39.331Z,5.20
2018-08-20T06:53:35.305Z,5.70
2018-08-20T06:54:35.319Z,4.80
2018-08-20T06:56:29.788Z,5.80
2018-08-20T06:57:29.747Z,5.40
2018-08-20T06:59:26.235Z,5.10
2018-08-20T07:00:25.724Z,5.40
2018-08-20T07:02:22.181Z,5.10
2018-08-20T07:03:21.675Z,4.90
2018-08-20T07:05:18.568Z,5.00
2018-08-20T07:06:17.644Z,5.80
2018-08-20T07:08:14.583Z,7.30
2018-08-20T07:09:15.546Z,5.90
2018-08-20T07:11:10.538Z,6.10
2018-08-20T07:12:10.538Z,5.40
2018-08-20T07:14:07.002Z,5.40
2018-08-20T07:15:06.504Z,5.70
2018-08-20T07:17:02.465Z,5.70
2018-08-20T07:18:03.960Z,5.50
2018-08-20T07:19:58.406Z,5.00
2018-08-20T07:20:58.397Z,5.20
2018-08-20T07:22:54.387Z,5.00
2018-08-20T07:23:54.949Z,5.30
2018-08-20T07:25:51.331Z,5.50
2018-08-20T07:26:50.870Z,5.70
2018-08-20T07:28:51.397Z,6.70
2018-08-20T07:29:50.761Z,6.20
2018-08-20T07:31:52.747Z,5.40
2018-08-20T07:32:52.092Z,5.70
2018-08-20T07:35:02.034Z,6.90
2018-08-20T07:35:52.465Z,8.90
2018-08-20T07:37:50.449Z,6.30
2018-08-20T07:38:50.469Z,6.70
2018-08-20T07:40:51.903Z,5.80
2018-08-20T07:41:51.412Z,6.20
2018-08-20T07:43:52.410Z,6.60
2018-08-20T07:44:51.364Z,7.00
2018-08-20T07:46:48.425Z,6.40
2018-08-20T07:47:48.357Z,5.90
2018-08-20T07:49:49.992Z,6.20
2018-08-20T07:50:49.014Z,6.70
2018-08-20T07:52:49.483Z,6.80
2018-08-20T07:53:49.996Z,6.80
2018-08-20T07:55:52.991Z,6.50
2018-08-20T07:56:53.859Z,7.80
2018-08-20T07:58:51.469Z,7.00
2018-08-20T07:59:51.116Z,6.70
2018-08-20T08:01:47.008Z,32.20
2018-08-20T08:02:47.013Z,23.50
2018-08-20T08:04:44.002Z,24.70
2018-08-20T08:05:43.986Z,44.80
2018-08-20T08:07:40.957Z,7.70
2018-08-20T08:08:39.046Z,7.60
2018-08-20T08:10:36.969Z,7.30
2018-08-20T08:11:36.964Z,7.60
2018-08-20T08:13:33.914Z,8.20
2018-08-20T08:14:33.922Z,9.60
2018-08-20T08:16:29.374Z,8.10
2018-08-20T08:17:30.378Z,9.40
2018-08-20T08:19:26.325Z,9.20
2018-08-20T08:20:24.821Z,7.70
2018-08-20T08:22:20.786Z,7.60
2018-08-20T08:23:20.785Z,8.40
2018-08-20T08:25:16.760Z,7.70
2018-08-20T08:26:17.261Z,8.20
2018-08-20T08:28:13.691Z,7.90
2018-08-20T08:29:13.620Z,7.60
2018-08-20T08:31:08.673Z,8.40
2018-08-20T08:32:08.683Z,8.30
2018-08-20T08:34:04.646Z,9.10
2018-08-20T08:35:04.632Z,7.90
2018-08-20T08:37:02.575Z,9.90
2018-08-20T08:38:02.621Z,8.20
2018-08-20T08:40:00.556Z,8.40
2018-08-20T08:41:00.534Z,8.00
2018-08-20T08:42:56.988Z,8.00
2018-08-20T08:43:57.022Z,8.70
2018-08-20T08:45:52.963Z,7.90
2018-08-20T08:46:52.440Z,8.30
2018-08-20T08:48:48.423Z,8.40
2018-08-20T08:49:48.452Z,7.80
2018-08-20T08:51:44.363Z,9.20
2018-08-20T08:52:45.371Z,9.40
2018-08-20T08:54:40.297Z,8.30
2018-08-20T08:55:40.315Z,7.20
2018-08-20T08:57:34.817Z,9.90
2018-08-20T08:58:34.803Z,9.80
2018-08-20T09:00:30.817Z,9.40
2018-08-20T09:01:30.755Z,9.00
2018-08-20T09:03:28.897Z,8.30
2018-08-20T09:04:28.916Z,8.70
2018-08-20T09:06:25.346Z,8.60
2018-08-20T09:07:24.830Z,8.80
2018-08-20T09:09:20.815Z,9.50
2018-08-20T09:10:20.795Z,9.10
2018-08-20T09:12:19.778Z,9.80
2018-08-20T09:13:19.777Z,11.20
2018-08-20T09:15:15.897Z,9.90
2018-08-20T09:16:14.899Z,9.70
2018-08-20T09:18:10.868Z,9.70
2018-08-20T09:19:10.879Z,9.60
2018-08-20T09:21:06.832Z,11.00
2018-08-20T09:22:07.347Z,10.60
2018-08-20T09:24:03.822Z,12.30
2018-08-20T09:25:02.808Z,11.80
2018-08-20T09:26:58.785Z,11.80
2018-08-20T09:27:58.785Z,11.00
2018-08-20T09:29:54.728Z,11.10
2018-08-20T09:30:54.735Z,11.10
2018-08-20T09:32:50.718Z,11.20
2018-08-20T09:33:51.698Z,11.80
2018-08-20T09:35:48.168Z,11.00
2018-08-20T09:36:47.187Z,10.80
2018-08-20T09:38:43.607Z,11.20
2018-08-20T09:39:42.605Z,10.80
2018-08-20T09:41:40.054Z,10.70
2018-08-20T09:42:39.076Z,10.90
2018-08-20T09:44:34.550Z,10.80
2018-08-20T09:45:34.530Z,10.20
2018-08-20T09:47:31.503Z,24.60
2018-08-20T09:48:30.488Z,10.70
2018-08-20T09:50:26.425Z,9.70
2018-08-20T09:51:26.450Z,9.90
2018-08-20T09:53:22.478Z,8.60
2018-08-20T09:54:22.406Z,8.10
2018-08-20T09:56:18.345Z,8.20
2018-08-20T09:57:18.357Z,7.50
2018-08-20T09:59:15.353Z,7.50
2018-08-20T10:00:14.339Z,7.50
2018-08-20T10:02:11.311Z,7.90
2018-08-20T10:03:10.296Z,8.50
2018-08-20T10:05:06.275Z,7.30
2018-08-20T10:06:07.258Z,7.40
2018-08-20T10:08:02.262Z,7.00
2018-08-20T10:09:02.282Z,7.50
2018-08-20T10:10:58.227Z,7.50
2018-08-20T10:11:58.222Z,7.70
2018-08-20T10:13:54.686Z,7.40
2018-08-20T10:14:54.191Z,8.20
2018-08-20T10:16:50.168Z,6.70
2018-08-20T10:17:50.196Z,11.40
2018-08-20T10:19:48.610Z,8.30
2018-08-20T10:20:48.137Z,7.80
2018-08-20T10:22:45.094Z,7.30
2018-08-20T10:23:44.066Z,7.20
2018-08-20T10:25:39.999Z,7.20
2018-08-20T10:26:40.527Z,6.90
2018-08-20T10:28:33.474Z,7.20
2018-08-20T10:29:33.450Z,7.40
2018-08-20T10:31:30.407Z,7.20
2018-08-20T10:32:29.896Z,6.90
2018-08-20T10:34:26.185Z,7.40
2018-08-20T10:35:26.859Z,7.30
2018-08-20T10:37:23.177Z,7.80
2018-08-20T10:38:22.145Z,7.50
2018-08-20T10:40:18.115Z,7.60
2018-08-20T10:41:18.617Z,7.50
2018-08-20T10:43:15.076Z,7.70
2018-08-20T10:44:14.064Z,7.60
2018-08-20T10:46:10.528Z,8.30
2018-08-20T10:47:10.008Z,7.90
2018-08-20T10:49:09.964Z,7.80
2018-08-20T10:50:09.053Z,8.40
2018-08-20T10:52:04.147Z,15.10
2018-08-20T10:53:04.123Z,8.10
2018-08-20T10:55:03.583Z,8.60
2018-08-20T10:56:02.240Z,8.50
2018-08-20T10:57:58.205Z,8.20
2018-08-20T10:58:58.197Z,9.10
2018-08-20T11:00:55.153Z,8.40
2018-08-20T11:01:54.686Z,8.70
2018-08-20T11:03:50.080Z,9.10
2018-08-20T11:04:50.094Z,9.40
2018-08-20T11:06:46.066Z,10.60
2018-08-20T11:07:46.575Z,10.80
2018-08-20T11:09:42.034Z,10.30
2018-08-20T11:10:42.032Z,10.60
2018-08-20T11:12:38.476Z,9.70
2018-08-20T11:13:37.947Z,10.90
2018-08-20T11:15:36.417Z,10.30
2018-08-20T11:16:35.876Z,10.90
2018-08-20T11:18:33.397Z,10.30
2018-08-20T11:19:31.836Z,11.70
2018-08-20T11:21:28.779Z,11.70
2018-08-20T11:22:27.792Z,14.10
2018-08-20T11:24:23.729Z,12.40
2018-08-20T11:25:23.757Z,12.40
2018-08-20T11:27:20.709Z,12.40
2018-08-20T11:28:19.702Z,12.50
2018-08-20T11:30:15.668Z,11.40
2018-08-20T11:31:15.645Z,12.30
2018-08-20T11:33:12.113Z,12.80
2018-08-20T11:34:11.598Z,12.40
2018-08-20T11:36:07.557Z,11.10
2018-08-20T11:37:07.537Z,11.60
2018-08-20T11:39:03.529Z,10.70
2018-08-20T11:40:03.483Z,10.50
2018-08-20T11:42:00.445Z,10.60
2018-08-20T11:43:00.942Z,11.60
2018-08-20T11:44:56.402Z,10.60
2018-08-20T11:45:55.421Z,9.20
2018-08-20T11:47:52.884Z,9.80
2018-08-20T11:48:52.374Z,9.00
2018-08-20T11:50:47.882Z,8.90
2018-08-20T11:53:43.361Z,9.10
2018-08-20T11:54:43.325Z,9.70
2018-08-20T11:56:40.806Z,8.50
2018-08-20T11:57:39.281Z,9.30
2018-08-20T11:59:37.736Z,9.50
2018-08-20T12:00:37.240Z,9.40
2018-08-20T12:02:33.710Z,9.30
2018-08-20T12:03:33.220Z,8.90
2018-08-20T12:05:29.135Z,9.10
2018-08-20T12:06:29.144Z,8.90
2018-08-20T12:08:25.614Z,9.50
2018-08-20T12:09:25.116Z,9.30
2018-08-20T12:11:23.594Z,9.30
2018-08-20T12:12:23.056Z,8.70
2018-08-20T12:14:21.184Z,8.60
2018-08-20T12:15:21.194Z,9.10
2018-08-20T12:17:19.716Z,9.00
2018-08-20T12:18:20.647Z,8.40
2018-08-20T12:20:17.123Z,8.10
2018-08-20T12:21:17.085Z,7.80
2018-08-20T12:23:14.107Z,7.80
2018-08-20T12:24:13.034Z,8.20
2018-08-20T12:26:10.493Z,7.80
2018-08-20T12:27:09.537Z,8.10
2018-08-20T12:29:04.903Z,7.40
2018-08-20T12:30:04.918Z,7.20
2018-08-20T12:32:00.905Z,6.80
2018-08-20T12:33:00.889Z,6.40
2018-08-20T12:34:56.911Z,5.70
2018-08-20T12:35:56.827Z,6.30
2018-08-20T12:37:54.322Z,6.50
2018-08-20T12:38:52.816Z,7.40
2018-08-20T12:40:50.956Z,6.70
2018-08-20T12:41:50.926Z,7.90
2018-08-20T12:43:48.907Z,7.10
2018-08-20T12:44:50.403Z,7.10
2018-08-20T12:46:44.899Z,6.70
2018-08-20T12:47:45.892Z,7.00
2018-08-20T12:49:40.861Z,7.00
2018-08-20T12:50:41.762Z,6.80
2018-08-20T12:52:36.856Z,7.00
2018-08-20T12:53:36.804Z,7.10
2018-08-20T12:55:34.778Z,5.50
2018-08-20T12:56:34.774Z,5.50
2018-08-20T12:58:30.728Z,4.80
2018-08-20T12:59:30.758Z,5.60
2018-08-20T13:01:27.725Z,7.30
2018-08-20T13:02:26.717Z,6.40
2018-08-20T13:04:24.659Z,7.50
2018-08-20T13:05:24.687Z,7.00
2018-08-20T13:07:20.678Z,6.50
2018-08-20T13:08:20.638Z,6.40
2018-08-20T13:10:19.117Z,5.60
2018-08-20T13:11:18.778Z,6.40
2018-08-20T13:13:16.727Z,6.40
2018-08-20T13:14:14.744Z,21.50
2018-08-20T13:16:10.823Z,6.70
2018-08-20T13:17:10.685Z,6.50
2018-08-20T13:19:07.667Z,6.90
2018-08-20T13:20:06.646Z,7.20
2018-08-20T13:22:03.125Z,7.90
2018-08-20T13:23:02.611Z,8.50
2018-08-20T13:24:59.604Z,8.40
2018-08-20T13:25:58.984Z,6.80
2018-08-20T13:27:58.615Z,7.00
2018-08-20T13:28:56.940Z,6.50
2018-08-20T13:30:55.064Z,7.60
2018-08-20T13:31:55.906Z,7.40
2018-08-20T13:33:51.102Z,7.70
2018-08-20T13:34:52.052Z,8.30
2018-08-20T13:36:47.516Z,11.20
2018-08-20T13:37:47.037Z,9.40
2018-08-20T13:39:44.987Z,9.00
2018-08-20T13:40:43.015Z,8.00
2018-08-20T13:42:38.996Z,7.00
2018-08-20T13:43:38.964Z,7.50
2018-08-20T13:45:36.432Z,7.50
2018-08-20T13:46:35.539Z,7.60
2018-08-20T13:48:34.013Z,9.40
2018-08-20T13:49:33.510Z,8.50
2018-08-20T13:51:29.895Z,6.40
2018-08-20T13:52:29.467Z,9.50
2018-08-20T13:54:25.937Z,7.00
2018-08-20T13:55:25.423Z,6.60
2018-08-20T13:57:21.391Z,7.70
2018-08-20T13:58:21.368Z,8.60
2018-08-20T14:00:19.838Z,9.70
2018-08-20T14:01:19.360Z,8.30
2018-08-20T14:03:17.294Z,7.10
2018-08-20T14:04:17.317Z,7.90
2018-08-20T14:06:13.258Z,8.80
2018-08-20T14:07:13.254Z,8.80
2018-08-20T14:09:10.220Z,8.60
2018-08-20T14:10:09.236Z,8.50
2018-08-20T14:12:19.137Z,6.30
2018-08-20T14:14:34.488Z,6.70
2018-08-20T14:15:31.045Z,7.80
2018-08-20T14:17:42.228Z,6.80
2018-08-20T14:20:01.799Z,7.00
2018-08-20T14:21:00.333Z,6.50
2018-08-20T14:22:58.273Z,7.20
2018-08-20T14:23:59.807Z,5.90
2018-08-20T14:25:58.761Z,7.10
2018-08-20T14:26:55.766Z,6.10
2018-08-20T14:29:20.761Z,6.10
2018-08-20T14:30:18.488Z,5.50
2018-08-20T14:32:16.025Z,6.10
2018-08-20T14:33:16.626Z,4.90
2018-08-20T14:35:13.926Z,5.50
2018-08-20T14:36:13.940Z,5.80
2018-08-20T14:38:11.390Z,5.40
2018-08-20T14:39:10.382Z,5.80
2018-08-20T14:41:06.372Z,6.40
2018-08-20T14:42:05.848Z,6.90
2018-08-20T14:44:01.822Z,6.20
2018-08-20T14:45:01.807Z,6.20
2018-08-20T14:46:58.774Z,5.90
2018-08-20T14:47:58.286Z,6.10
2018-08-20T14:49:57.246Z,6.30
2018-08-20T14:50:55.928Z,6.50
2018-08-20T14:52:54.027Z,7.30
2018-08-20T14:53:54.866Z,6.80
2018-08-20T14:55:49.943Z,7.80
2018-08-20T14:56:49.958Z,7.90
2018-08-20T14:58:45.930Z,7.60
2018-08-20T14:59:45.938Z,7.90
2018-08-20T15:01:41.904Z,7.50
2018-08-20T15:02:41.877Z,7.00
2018-08-20T15:04:38.382Z,8.70
2018-08-20T15:05:38.347Z,8.80
2018-08-20T15:07:33.838Z,8.40
2018-08-20T15:08:33.805Z,8.60
2018-08-20T15:10:30.271Z,9.30
2018-08-20T15:11:29.767Z,8.80
2018-08-20T15:13:28.760Z,9.60
2018-08-20T15:14:27.735Z,9.00
2018-08-20T15:16:23.724Z,9.40
2018-08-20T15:17:23.699Z,8.70
2018-08-20T15:19:20.667Z,9.20
2018-08-20T15:20:20.675Z,9.50
2018-08-20T15:22:15.656Z,10.60
2018-08-20T15:23:15.653Z,9.90
2018-08-20T15:25:11.657Z,9.60
2018-08-20T15:26:11.610Z,9.50
2018-08-20T15:28:09.063Z,11.00
2018-08-20T15:29:08.591Z,10.70
2018-08-20T15:31:04.068Z,11.00
2018-08-20T15:32:03.550Z,12.40
2018-08-20T15:33:59.535Z,12.10
2018-08-20T15:34:59.501Z,11.70
2018-08-20T15:36:55.500Z,11.80
2018-08-20T15:37:55.477Z,11.50
2018-08-20T15:39:53.861Z,11.50
2018-08-20T15:40:51.422Z,13.30
2018-08-20T15:42:47.373Z,10.60
2018-08-20T15:43:47.385Z,11.30
2018-08-20T15:45:43.867Z,13.00
2018-08-20T15:46:43.319Z,13.40
2018-08-20T15:48:44.304Z,11.70
2018-08-20T15:49:39.318Z,14.10
2018-08-20T15:51:35.290Z,13.30
2018-08-20T15:52:35.333Z,14.40
2018-08-20T15:54:32.237Z,14.00
2018-08-20T15:55:31.582Z,13.90
2018-08-20T15:57:27.278Z,13.00
2018-08-20T15:58:27.484Z,14.10
2018-08-20T16:00:26.272Z,13.60
2018-08-20T16:01:26.310Z,12.80
2018-08-20T16:03:24.260Z,12.90
2018-08-20T16:04:23.096Z,13.40
2018-08-20T16:06:20.068Z,13.10
2018-08-20T16:07:19.062Z,12.00
2018-08-20T16:09:16.019Z,12.20
2018-08-20T16:10:15.067Z,12.50
2018-08-20T16:12:12.034Z,11.60
2018-08-20T16:13:11.147Z,11.60
2018-08-20T16:15:11.199Z,11.80
2018-08-20T16:16:09.468Z,11.40
2018-08-20T16:18:10.432Z,11.60
2018-08-20T16:20:57.751Z,11.20
2018-08-20T16:21:57.737Z,11.20
2018-08-20T16:24:09.343Z,11.50
2018-08-20T16:25:08.706Z,11.90
2018-08-20T16:27:12.586Z,11.70
2018-08-20T16:28:09.684Z,12.30
2018-08-20T16:30:10.189Z,12.50
2018-08-20T16:31:11.623Z,11.50
2018-08-20T16:33:08.325Z,12.60
2018-08-20T16:34:07.844Z,12.20
2018-08-20T16:36:03.819Z,12.10
2018-08-20T16:37:03.746Z,12.20
2018-08-20T16:39:04.693Z,12.30
2018-08-20T16:40:06.259Z,11.30
2018-08-20T16:42:03.169Z,11.40
2018-08-20T16:43:03.171Z,11.50
2018-08-20T16:45:06.245Z,11.70
2018-08-20T16:46:04.190Z,12.40
2018-08-20T16:48:07.241Z,11.70
2018-08-20T16:49:01.838Z,11.50
2018-08-20T16:51:02.667Z,11.50
2018-08-20T16:52:02.491Z,10.90
2018-08-20T16:54:02.221Z,11.30
2018-08-20T16:55:00.411Z,11.30
2018-08-20T16:57:05.386Z,10.90
2018-08-20T16:58:04.444Z,10.70
2018-08-20T17:00:04.983Z,11.30
2018-08-20T17:01:04.895Z,11.40
2018-08-20T17:03:05.428Z,11.10
2018-08-20T17:04:05.351Z,11.10
2018-08-20T17:06:05.886Z,11.10
2018-08-20T17:07:06.441Z,10.90
2018-08-20T17:09:07.736Z,10.80
2018-08-20T17:10:08.214Z,10.20
2018-08-20T17:12:08.199Z,10.10
2018-08-20T17:13:07.463Z,10.10
2018-08-20T17:15:08.600Z,11.20
2018-08-20T17:16:09.000Z,10.60
2018-08-20T17:18:11.386Z,10.00
2018-08-20T17:19:09.804Z,9.80
2018-08-20T17:21:11.766Z,9.80
2018-08-20T17:22:10.246Z,9.40
2018-08-20T17:24:19.279Z,10.10
2018-08-20T17:25:13.434Z,9.60
2018-08-20T17:27:15.006Z,9.50
2018-08-20T17:28:13.910Z,9.40
2018-08-20T17:30:16.381Z,9.90
2018-08-20T17:31:15.154Z,9.80
2018-08-20T17:33:13.713Z,9.30
2018-08-20T17:34:14.241Z,9.10
2018-08-20T17:36:14.829Z,10.00
2018-08-20T17:37:14.993Z,10.10
2018-08-20T17:39:25.469Z,9.30
2018-08-20T17:40:16.260Z,9.60
2018-08-20T17:42:17.841Z,8.80
2018-08-20T17:43:18.791Z,9.60
2018-08-20T17:45:19.067Z,9.00
2018-08-20T17:46:17.406Z,9.00
2018-08-20T17:48:19.692Z,8.60
2018-08-20T17:49:17.742Z,8.90
2018-08-20T17:51:20.675Z,8.70
2018-08-20T17:52:20.696Z,9.30
2018-08-20T17:54:19.129Z,8.10
2018-08-20T17:55:16.179Z,8.10
2018-08-20T17:57:19.912Z,8.90
2018-08-20T17:58:16.551Z,7.90
2018-08-20T18:00:20.454Z,8.50
2018-08-20T18:02:57.210Z,8.00
2018-08-20T18:03:53.883Z,7.90
2018-08-20T18:06:06.008Z,7.80
2018-08-20T18:07:02.696Z,7.20
2018-08-20T18:09:00.314Z,7.40
2018-08-20T18:10:16.650Z,7.20
2018-08-20T18:12:01.438Z,8.20
2018-08-20T18:13:00.924Z,7.30
2018-08-20T18:15:13.316Z,7.60
2018-08-20T18:17:33.431Z,7.10
2018-08-20T18:18:33.756Z,7.90
2018-08-20T18:20:44.570Z,7.30
2018-08-20T18:21:43.324Z,7.30
2018-08-20T18:23:43.613Z,6.20
2018-08-20T18:24:42.785Z,6.90
2018-08-20T18:26:44.247Z,6.50
2018-08-20T18:27:43.299Z,6.30
2018-08-20T18:29:41.248Z,5.40
2018-08-20T18:30:42.012Z,5.90
2018-08-20T18:32:43.688Z,5.70
2018-08-20T18:33:43.746Z,5.80
2018-08-20T18:35:43.120Z,5.70
2018-08-20T18:36:43.131Z,5.40
2018-08-20T18:38:46.296Z,5.90
2018-08-20T18:39:46.186Z,5.80
2018-08-20T18:41:47.055Z,5.80
2018-08-20T18:42:46.921Z,5.70
2018-08-20T18:44:49.449Z,5.90
2018-08-20T18:45:47.885Z,5.70
2018-08-20T18:47:53.459Z,5.60
2018-08-20T18:48:53.878Z,6.10
2018-08-20T18:51:03.004Z,5.90
2018-08-20T18:52:02.350Z,5.70
2018-08-20T18:54:17.659Z,5.60
2018-08-20T18:55:15.360Z,6.40
2018-08-20T18:57:28.947Z,6.20
2018-08-20T18:58:28.349Z,6.20
2018-08-20T19:00:29.506Z,5.90
2018-08-20T19:01:28.468Z,5.80
2018-08-20T19:03:29.435Z,5.90
2018-08-20T19:04:28.438Z,6.30
2018-08-20T19:06:32.063Z,6.20
2018-08-20T19:07:28.995Z,5.90
2018-08-20T19:09:30.405Z,6.70
2018-08-20T19:10:30.795Z,6.20
2018-08-20T19:12:30.830Z,5.70
2018-08-20T19:13:30.456Z,6.60
2018-08-20T19:15:34.158Z,6.00
2018-08-20T19:18:36.633Z,6.30
2018-08-20T19:20:08.724Z,6.30
2018-08-20T19:21:54.835Z,6.50
2018-08-20T19:22:54.608Z,7.00
2018-08-20T19:24:55.110Z,6.60
2018-08-20T19:25:56.608Z,6.60
2018-08-20T19:27:56.507Z,6.60
2018-08-20T19:28:56.621Z,6.30
2018-08-20T19:30:56.985Z,6.00
2018-08-20T19:31:56.943Z,6.30
2018-08-20T19:33:58.928Z,6.30
2018-08-20T19:34:58.009Z,6.00
2018-08-20T19:36:58.510Z,6.70